Seagoville, TX (75159)

1:15 AM CST on February 06, 2016 (GMT -0600)
Mesquite Texas | | Change Station
CLOSE
Current Station
Personal Weather Station
Location: Balch Springs, TX
Elevation: 522 ft
Nearby Weather Stations
Active Advisory: Flood Warning

Elev 522 ft 32.71 °N, 96.60 °W | Updated 15 seconds ago

Overcast
Overcast
46.8 °F
Feels Like 47 °F
N
0.4
Wind Variable Wind from WSW
Gusts 2.5 mph

Today
High -- | Low -- °F
--% Chance of Precip.
Yesterday
High -- | Low -- °F
Precip. -- in
Pressure 30.28 in
Visibility 10.0 miles
Clouds Mostly Cloudy 4800 ft
Overcast 6500 ft
Windchill 47 °F
Dew Point 29 °F
Humidity 49%
Rainfall 0.00 in
Snow Depth Not available.
7:17 AM 6:03 PM
Waning Crescent, 7% visible
METAR KHQZ 060655Z AUTO 16006KT 10SM BKN048 OVC065 07/M04 A3028 RMK AO1 T00691038
Pressure 30.28 in
Visibility 10.0 miles
Clouds Mostly Cloudy 4800 ft
Overcast 6500 ft
Windchill 47 °F
Dew Point 29 °F
Humidity 49%
Rainfall 0.00 in
Snow Depth Not available.
7:17 AM 6:03 PM
Waning Crescent, 7% visible
METAR KHQZ 060655Z AUTO 16006KT 10SM BKN048 OVC065 07/M04 A3028 RMK AO1 T00691038

10-Day Weather Forecast

Almanac

Astronomy

Feb. 06, 2016 Rise Set
Actual Time
Civil Twilight
Nautical Twilight
Astronomical Twilight
Moon
Length of Visible Light
Length of Day
Tomorrow will be .
, % of the Moon is Illuminated

Today's Extremes

State Highs State Lows

Community

WunderPhotos

Upload Photos

1,890,932 photos uploaded!

WunderBlog® & News

Nearby

Air Quality

  Air Quality AQ Index Pollutant
Not available.

Snow Depth

Station Depth Elevation

Earthquake Activity

City Distance Mag. Time & Date
Minimum magnitude displayed is 2.5.

Coastal Water Temperatures

Place Temperature

Stations

Nearby Weather Stations

Station Location Temp. Windchill Dew Point Humidity Wind Precip. Elev Updated Type
                   

Watches & Warnings

Flood Warning
Issued: 6:56 PM CST Feb. 5, 2016 – National Weather Service

The Flood Warning continues for
the Elm Fork Trinity River near Carrollton.
* At 0615 PM Friday the stage was 8.32 feet.
* Flood stage is 8 feet.
* Minor flooding is occurring and minor flooding is forecast.
* Forecast... the river will remain near 8.4 feet for the next
several days.


Lat... Lon 3300 9700 3287 9699 3287 9687 3300 9688